createdAt,value
2023-05-10T00:00:06.309Z,302.00
2023-05-10T00:01:06.359Z,302.00
2023-05-10T00:02:06.352Z,303.00
2023-05-10T00:03:06.516Z,303.00
2023-05-10T00:04:06.411Z,304.00
2023-05-10T00:05:06.483Z,303.00
2023-05-10T00:06:06.460Z,302.00
2023-05-10T00:07:06.470Z,301.00
2023-05-10T00:08:06.540Z,303.00
2023-05-10T00:09:06.500Z,303.00
2023-05-10T00:10:06.497Z,306.00
2023-05-10T00:11:06.535Z,306.00
2023-05-10T00:12:06.518Z,303.00
2023-05-10T00:13:06.594Z,302.00
2023-05-10T00:14:06.561Z,303.00
2023-05-10T00:15:06.562Z,303.00
2023-05-10T00:16:06.657Z,301.00
2023-05-10T00:17:06.617Z,301.00
2023-05-10T00:18:06.671Z,300.00
2023-05-10T00:19:06.654Z,302.00
2023-05-10T00:20:06.696Z,301.00
2023-05-10T00:21:06.675Z,302.00
2023-05-10T00:22:06.691Z,301.00
2023-05-10T00:23:06.724Z,300.00
2023-05-10T00:24:06.740Z,299.00
2023-05-10T00:25:06.735Z,300.00
2023-05-10T00:26:06.738Z,301.00
2023-05-10T00:27:06.751Z,301.00
2023-05-10T00:28:06.757Z,299.00
2023-05-10T00:29:06.756Z,299.00
2023-05-10T00:30:06.763Z,296.00
2023-05-10T00:31:06.790Z,299.00
2023-05-10T00:32:06.854Z,299.00
2023-05-10T00:33:06.842Z,301.00
2023-05-10T00:34:06.809Z,301.00
2023-05-10T00:35:06.839Z,300.00
2023-05-10T00:36:06.834Z,298.00
2023-05-10T00:37:06.820Z,295.00
2023-05-10T00:38:06.809Z,294.00
2023-05-10T00:39:06.840Z,293.00
2023-05-10T00:40:06.836Z,293.00
2023-05-10T00:41:06.844Z,294.00
2023-05-10T00:42:06.824Z,294.00
2023-05-10T00:43:06.818Z,295.00
2023-05-10T00:44:06.849Z,296.00
2023-05-10T00:45:06.828Z,299.00
2023-05-10T00:46:06.884Z,297.00
2023-05-10T00:47:06.843Z,296.00
2023-05-10T00:48:06.911Z,297.00
2023-05-10T00:49:06.855Z,296.00
2023-05-10T00:50:06.832Z,297.00
2023-05-10T00:51:06.837Z,297.00
2023-05-10T00:52:06.846Z,295.00
2023-05-10T00:53:06.880Z,295.00
2023-05-10T00:54:06.885Z,298.00
2023-05-10T00:55:06.859Z,297.00
2023-05-10T00:56:06.911Z,297.00
2023-05-10T00:57:06.849Z,296.00
2023-05-10T00:58:06.872Z,297.00
2023-05-10T00:59:06.861Z,297.00
2023-05-10T01:00:06.877Z,296.00
2023-05-10T01:01:06.924Z,297.00
2023-05-10T01:02:06.904Z,296.00
2023-05-10T01:03:07.057Z,297.00
2023-05-10T01:04:06.870Z,298.00
2023-05-10T01:05:06.904Z,299.00
2023-05-10T01:06:06.859Z,298.00
2023-05-10T01:07:06.912Z,298.00
2023-05-10T01:08:06.901Z,299.00
2023-05-10T01:09:06.904Z,299.00
2023-05-10T01:10:06.935Z,297.00
2023-05-10T01:11:06.902Z,298.00
2023-05-10T01:12:06.928Z,298.00
2023-05-10T01:13:06.934Z,297.00
2023-05-10T01:14:06.927Z,300.00
2023-05-10T01:15:06.985Z,295.00
2023-05-10T01:16:06.939Z,294.00
2023-05-10T01:17:06.942Z,293.00
2023-05-10T01:18:06.927Z,295.00
2023-05-10T01:19:06.941Z,297.00
2023-05-10T01:20:06.950Z,298.00
2023-05-10T01:21:06.954Z,300.00
2023-05-10T01:22:06.946Z,303.00
2023-05-10T01:23:06.983Z,304.00
2023-05-10T01:24:07.007Z,303.00
2023-05-10T01:25:07.009Z,304.00
2023-05-10T01:26:07.035Z,305.00
2023-05-10T01:27:07.080Z,303.00
2023-05-10T01:28:07.110Z,302.00
2023-05-10T01:29:07.100Z,301.00
2023-05-10T01:30:15.467Z,299.00
2023-05-10T01:31:08.154Z,298.00
2023-05-10T01:32:07.124Z,297.00
2023-05-10T01:33:07.162Z,298.00
2023-05-10T01:34:07.091Z,298.00
2023-05-10T01:35:07.092Z,298.00
2023-05-10T01:36:07.080Z,296.00
2023-05-10T01:37:07.099Z,295.00
2023-05-10T01:38:07.107Z,296.00
2023-05-10T01:39:07.057Z,298.00
2023-05-10T01:40:07.032Z,296.00
2023-05-10T01:41:07.036Z,296.00
2023-05-10T01:42:07.037Z,297.00
2023-05-10T01:43:07.050Z,299.00
2023-05-10T01:44:07.024Z,298.00
2023-05-10T01:45:07.025Z,295.00
2023-05-10T01:46:07.006Z,295.00
2023-05-10T01:47:06.968Z,294.00
2023-05-10T01:48:07.107Z,295.00
2023-05-10T01:49:07.016Z,293.00
2023-05-10T01:50:06.990Z,294.00
2023-05-10T01:51:06.989Z,293.00
2023-05-10T01:52:06.943Z,292.00
2023-05-10T01:53:06.960Z,291.00
2023-05-10T01:54:06.953Z,289.00
2023-05-10T01:55:06.919Z,288.00
2023-05-10T01:56:06.937Z,289.00
2023-05-10T01:57:06.931Z,289.00
2023-05-10T01:58:06.916Z,290.00
2023-05-10T01:59:06.926Z,290.00
2023-05-10T02:00:06.891Z,289.00
2023-05-10T02:01:06.956Z,291.00
2023-05-10T02:02:06.934Z,290.00
2023-05-10T02:03:06.965Z,292.00
2023-05-10T02:04:06.981Z,290.00
2023-05-10T02:05:06.924Z,292.00
2023-05-10T02:06:06.986Z,293.00
2023-05-10T02:07:06.989Z,293.00
2023-05-10T02:08:06.991Z,294.00
2023-05-10T02:09:06.979Z,295.00
2023-05-10T02:10:07.033Z,296.00
2023-05-10T02:11:07.039Z,296.00
2023-05-10T02:12:07.037Z,296.00
2023-05-10T02:13:07.120Z,296.00
2023-05-10T02:14:07.056Z,294.00
2023-05-10T02:15:07.059Z,296.00
2023-05-10T02:16:07.121Z,294.00
2023-05-10T02:17:07.086Z,291.00
2023-05-10T02:18:07.272Z,292.00
2023-05-10T02:19:07.120Z,292.00
2023-05-10T02:20:07.131Z,294.00
2023-05-10T02:21:07.106Z,294.00
2023-05-10T02:22:07.107Z,295.00
2023-05-10T02:23:07.154Z,293.00
2023-05-10T02:24:07.127Z,292.00
2023-05-10T02:25:07.157Z,292.00
2023-05-10T02:26:07.189Z,289.00
2023-05-10T02:27:07.226Z,291.00
2023-05-10T02:28:07.223Z,292.00
2023-05-10T02:29:07.191Z,292.00
2023-05-10T02:30:07.223Z,292.00
2023-05-10T02:31:07.254Z,292.00
2023-05-10T02:32:07.338Z,291.00
2023-05-10T02:33:07.379Z,290.00
2023-05-10T02:34:07.310Z,290.00
2023-05-10T02:35:07.327Z,292.00
2023-05-10T02:36:07.632Z,292.00
2023-05-10T02:37:07.324Z,289.00
2023-05-10T02:38:07.350Z,289.00
2023-05-10T02:39:07.346Z,289.00
2023-05-10T02:40:07.374Z,289.00
2023-05-10T02:41:07.408Z,288.00
2023-05-10T02:42:07.393Z,288.00
2023-05-10T02:43:07.389Z,290.00
2023-05-10T02:44:07.403Z,290.00
2023-05-10T02:45:07.456Z,290.00
2023-05-10T02:46:07.486Z,290.00
2023-05-10T02:47:07.495Z,290.00
2023-05-10T02:48:07.542Z,292.00
2023-05-10T02:49:07.501Z,294.00
2023-05-10T02:50:07.546Z,296.00
2023-05-10T02:51:07.556Z,295.00
2023-05-10T02:52:07.565Z,297.00
2023-05-10T02:53:07.596Z,297.00
2023-05-10T02:54:07.597Z,295.00
2023-05-10T02:55:07.601Z,293.00
2023-05-10T02:56:07.667Z,291.00
2023-05-10T02:57:07.628Z,292.00
2023-05-10T02:58:07.680Z,293.00
2023-05-10T02:59:07.672Z,294.00
2023-05-10T03:00:07.702Z,295.00
2023-05-10T03:01:07.738Z,296.00
2023-05-10T03:02:07.730Z,295.00
2023-05-10T03:03:07.793Z,297.00
2023-05-10T03:04:07.775Z,298.00
2023-05-10T03:05:07.813Z,298.00
2023-05-10T03:06:07.819Z,299.00
2023-05-10T03:07:07.788Z,301.00
2023-05-10T03:08:07.821Z,301.00
2023-05-10T03:09:07.906Z,302.00
2023-05-10T03:10:07.919Z,303.00
2023-05-10T03:11:07.914Z,301.00
2023-05-10T03:12:07.964Z,301.00
2023-05-10T03:13:08.036Z,298.00
2023-05-10T03:14:08.001Z,298.00
2023-05-10T03:15:08.019Z,296.00
2023-05-10T03:16:08.130Z,294.00
2023-05-10T03:17:08.082Z,293.00
2023-05-10T03:18:08.116Z,292.00
2023-05-10T03:19:08.147Z,294.00
2023-05-10T03:20:08.171Z,293.00
2023-05-10T03:21:08.155Z,293.00
2023-05-10T03:22:08.191Z,290.00
2023-05-10T03:23:08.196Z,287.00
2023-05-10T03:24:08.202Z,287.00
2023-05-10T03:25:08.274Z,286.00
2023-05-10T03:26:08.249Z,288.00
2023-05-10T03:27:08.301Z,292.00
2023-05-10T03:28:08.341Z,293.00
2023-05-10T03:29:08.411Z,292.00
2023-05-10T03:30:08.368Z,289.00
2023-05-10T03:31:08.435Z,289.00
2023-05-10T03:32:08.398Z,290.00
2023-05-10T03:33:08.419Z,289.00
2023-05-10T03:34:08.489Z,291.00
2023-05-10T03:35:08.482Z,293.00
2023-05-10T03:36:08.461Z,293.00
2023-05-10T03:37:08.509Z,291.00
2023-05-10T03:38:08.514Z,291.00
2023-05-10T03:39:08.577Z,291.00
2023-05-10T03:40:08.602Z,292.00
2023-05-10T03:41:08.632Z,293.00
2023-05-10T03:42:08.613Z,292.00
2023-05-10T03:43:08.658Z,292.00
2023-05-10T03:44:08.645Z,292.00
2023-05-10T03:45:08.708Z,292.00
2023-05-10T03:46:08.745Z,292.00
2023-05-10T03:47:09.062Z,293.00
2023-05-10T03:48:08.790Z,292.00
2023-05-10T03:49:08.754Z,292.00
2023-05-10T03:50:08.806Z,292.00
2023-05-10T03:51:08.803Z,292.00
2023-05-10T03:52:08.844Z,293.00
2023-05-10T03:53:08.888Z,293.00
2023-05-10T03:54:08.862Z,293.00
2023-05-10T03:55:08.918Z,292.00
2023-05-10T03:56:08.945Z,292.00
2023-05-10T03:57:08.946Z,292.00
2023-05-10T03:58:08.953Z,292.00
2023-05-10T03:59:08.995Z,293.00
2023-05-10T04:00:08.998Z,293.00
2023-05-10T04:01:09.111Z,291.00
2023-05-10T04:02:09.130Z,292.00
2023-05-10T04:03:09.154Z,292.00
2023-05-10T04:04:09.110Z,292.00
2023-05-10T04:05:09.100Z,292.00
2023-05-10T04:06:09.193Z,293.00
2023-05-10T04:07:09.185Z,293.00
2023-05-10T04:08:09.238Z,295.00
2023-05-10T04:09:09.200Z,296.00
2023-05-10T04:10:09.206Z,298.00
2023-05-10T04:11:09.250Z,299.00
2023-05-10T04:12:10.864Z,300.00
2023-05-10T04:13:09.344Z,301.00
2023-05-10T04:14:09.326Z,302.00
2023-05-10T04:15:09.376Z,302.00
2023-05-10T04:16:09.448Z,304.00
2023-05-10T04:17:09.536Z,302.00
2023-05-10T04:18:09.566Z,303.00
2023-05-10T04:19:09.652Z,304.00
2023-05-10T04:20:09.654Z,305.00
2023-05-10T04:21:09.741Z,307.00
2023-05-10T04:22:09.760Z,308.00
2023-05-10T04:23:09.799Z,309.00
2023-05-10T04:24:09.883Z,309.00
2023-05-10T04:25:09.912Z,309.00
2023-05-10T04:26:09.968Z,310.00
2023-05-10T04:27:10.046Z,310.00
2023-05-10T04:28:10.098Z,312.00
2023-05-10T04:29:10.097Z,309.00
2023-05-10T04:30:10.164Z,311.00
2023-05-10T04:31:10.219Z,312.00
2023-05-10T04:32:10.321Z,311.00
2023-05-10T04:33:10.315Z,310.00
2023-05-10T04:34:10.388Z,311.00
2023-05-10T04:35:10.444Z,312.00
2023-05-10T04:36:10.514Z,314.00
2023-05-10T04:37:10.655Z,316.00
2023-05-10T04:38:10.662Z,317.00
2023-05-10T04:39:10.667Z,315.00
2023-05-10T04:40:10.722Z,316.00
2023-05-10T04:41:10.795Z,317.00
2023-05-10T04:42:10.850Z,315.00
2023-05-10T04:43:10.901Z,315.00
2023-05-10T04:44:10.973Z,316.00
2023-05-10T04:45:11.003Z,316.00
2023-05-10T04:46:11.107Z,317.00
2023-05-10T04:47:12.777Z,317.00
2023-05-10T04:48:11.181Z,318.00
2023-05-10T04:49:11.201Z,318.00
2023-05-10T04:50:11.297Z,316.00
2023-05-10T04:51:11.321Z,315.00
2023-05-10T04:52:11.406Z,313.00
2023-05-10T04:53:11.431Z,315.00
2023-05-10T04:54:11.552Z,315.00
2023-05-10T04:55:11.602Z,314.00
2023-05-10T04:56:11.633Z,313.00
2023-05-10T04:57:11.669Z,316.00
2023-05-10T04:58:11.722Z,315.00
2023-05-10T04:59:11.792Z,313.00
2023-05-10T05:00:11.838Z,313.00
2023-05-10T05:01:11.925Z,314.00
2023-05-10T05:02:11.934Z,314.00
2023-05-10T05:03:12.096Z,314.00
2023-05-10T05:04:12.076Z,311.00
2023-05-10T05:05:12.075Z,311.00
2023-05-10T05:06:12.127Z,311.00
2023-05-10T05:07:12.172Z,311.00
2023-05-10T05:08:12.221Z,313.00
2023-05-10T05:09:12.298Z,310.00
2023-05-10T05:10:12.315Z,309.00
2023-05-10T05:11:12.375Z,309.00
2023-05-10T05:12:12.438Z,311.00
2023-05-10T05:13:12.575Z,311.00
2023-05-10T05:14:12.531Z,313.00
2023-05-10T05:15:12.555Z,314.00
2023-05-10T05:16:12.688Z,315.00
2023-05-10T05:17:12.631Z,316.00
2023-05-10T05:18:12.732Z,314.00
2023-05-10T05:19:12.757Z,315.00
2023-05-10T05:20:12.759Z,315.00
2023-05-10T05:21:12.808Z,315.00
2023-05-10T05:22:12.854Z,314.00
2023-05-10T05:23:12.864Z,314.00
2023-05-10T05:24:12.922Z,312.00
2023-05-10T05:25:13.001Z,313.00
2023-05-10T05:26:13.012Z,313.00
2023-05-10T05:27:13.022Z,311.00
2023-05-10T05:28:13.060Z,310.00
2023-05-10T05:29:13.120Z,310.00
2023-05-10T05:30:13.167Z,313.00
2023-05-10T05:31:13.230Z,316.00
2023-05-10T05:32:13.395Z,316.00
2023-05-10T05:33:13.328Z,320.00
2023-05-10T05:34:13.358Z,324.00
2023-05-10T05:35:13.408Z,329.00
2023-05-10T05:36:13.424Z,337.00
2023-05-10T05:37:13.470Z,344.00
2023-05-10T05:38:13.521Z,349.00
2023-05-10T05:39:13.600Z,354.00
2023-05-10T05:40:13.675Z,358.00
2023-05-10T05:41:13.654Z,396.00
2023-05-10T05:42:13.712Z,424.00
2023-05-10T05:43:13.764Z,440.00
2023-05-10T05:44:13.753Z,469.00
2023-05-10T05:45:13.967Z,482.00
2023-05-10T05:46:13.840Z,493.00
2023-05-10T05:47:13.851Z,509.00
2023-05-10T05:48:13.843Z,533.00
2023-05-10T05:49:13.911Z,558.00
2023-05-10T05:50:13.950Z,569.00
2023-05-10T05:51:13.979Z,555.00
2023-05-10T05:52:13.985Z,556.00
2023-05-10T05:53:13.996Z,553.00
2023-05-10T05:54:14.006Z,555.00
2023-05-10T05:55:14.115Z,558.00
2023-05-10T05:56:14.045Z,565.00
2023-05-10T05:57:14.065Z,569.00
2023-05-10T05:58:14.061Z,573.00
2023-05-10T05:59:14.070Z,577.00
2023-05-10T06:00:14.099Z,576.00
2023-05-10T06:01:14.104Z,578.00
2023-05-10T06:02:14.169Z,580.00
2023-05-10T06:03:14.227Z,582.00
2023-05-10T06:04:14.155Z,583.00
2023-05-10T06:05:14.441Z,587.00
2023-05-10T06:06:14.145Z,587.00
2023-05-10T06:07:14.155Z,586.00
2023-05-10T06:08:14.139Z,585.00
2023-05-10T06:09:14.210Z,589.00
2023-05-10T06:10:14.164Z,592.00
2023-05-10T06:11:14.244Z,596.00
2023-05-10T06:12:14.192Z,598.00
2023-05-10T06:13:14.212Z,596.00
2023-05-10T06:14:14.174Z,597.00
2023-05-10T06:15:14.336Z,602.00
2023-05-10T06:16:14.253Z,603.00
2023-05-10T06:17:14.180Z,606.00
2023-05-10T06:18:14.237Z,608.00
2023-05-10T06:19:14.175Z,607.00
2023-05-10T06:20:14.212Z,606.00
2023-05-10T06:21:14.159Z,606.00
2023-05-10T06:22:14.183Z,610.00
2023-05-10T06:23:14.156Z,611.00
2023-05-10T06:24:14.170Z,613.00
2023-05-10T06:25:14.323Z,611.00
2023-05-10T06:26:14.192Z,609.00
2023-05-10T06:27:14.189Z,610.00
2023-05-10T06:28:14.215Z,609.00
2023-05-10T06:29:14.180Z,609.00
2023-05-10T06:30:14.186Z,611.00
2023-05-10T06:31:14.194Z,612.00
2023-05-10T06:32:14.198Z,615.00
2023-05-10T06:33:14.248Z,617.00
2023-05-10T06:34:14.273Z,619.00
2023-05-10T06:35:14.336Z,618.00
2023-05-10T06:36:14.393Z,618.00
2023-05-10T06:37:14.364Z,617.00
2023-05-10T06:38:14.363Z,619.00
2023-05-10T06:39:14.396Z,618.00
2023-05-10T06:40:14.457Z,612.00
2023-05-10T06:41:14.461Z,604.00
2023-05-10T06:42:14.464Z,579.00
2023-05-10T06:43:14.473Z,550.00
2023-05-10T06:44:14.732Z,550.00
2023-05-10T06:45:14.886Z,560.00
2023-05-10T06:46:14.660Z,561.00
2023-05-10T06:47:14.641Z,563.00
2023-05-10T06:48:14.687Z,566.00
2023-05-10T06:49:14.724Z,566.00
2023-05-10T06:50:14.735Z,569.00
2023-05-10T06:51:14.739Z,573.00
2023-05-10T06:52:14.768Z,576.00
2023-05-10T06:53:14.749Z,581.00
2023-05-10T06:54:14.793Z,582.00
2023-05-10T06:55:14.960Z,586.00
2023-05-10T06:56:14.752Z,590.00
2023-05-10T06:57:27.642Z,593.00
2023-05-10T06:58:15.764Z,596.00
2023-05-10T06:59:14.799Z,595.00
2023-05-10T07:00:14.885Z,593.00
2023-05-10T07:01:14.930Z,596.00
2023-05-10T07:02:14.821Z,596.00
2023-05-10T07:03:14.746Z,597.00
2023-05-10T07:04:14.809Z,599.00
2023-05-10T07:05:14.741Z,600.00
2023-05-10T07:06:29.408Z,603.00
2023-05-10T07:07:15.713Z,606.00
2023-05-10T07:08:14.713Z,605.00
2023-05-10T07:09:14.740Z,605.00
2023-05-10T07:10:14.697Z,601.00
2023-05-10T07:11:14.660Z,600.00
2023-05-10T07:12:15.660Z,602.00
2023-05-10T07:13:14.802Z,600.00
2023-05-10T07:14:14.647Z,602.00
2023-05-10T07:15:14.954Z,604.00
2023-05-10T07:16:14.720Z,599.00
2023-05-10T07:17:14.691Z,600.00
2023-05-10T07:18:14.808Z,601.00
2023-05-10T07:19:15.255Z,601.00
2023-05-10T07:20:14.927Z,604.00
2023-05-10T07:21:15.033Z,609.00
2023-05-10T07:22:15.047Z,611.00
2023-05-10T07:23:15.095Z,614.00
2023-05-10T07:24:15.131Z,614.00
2023-05-10T07:25:15.330Z,618.00
2023-05-10T07:26:15.258Z,617.00
2023-05-10T07:27:15.310Z,613.00
2023-05-10T07:28:15.352Z,614.00
2023-05-10T07:29:15.430Z,617.00
2023-05-10T07:30:15.504Z,620.00
2023-05-10T07:31:15.492Z,619.00
2023-05-10T07:32:15.697Z,621.00
2023-05-10T07:33:15.686Z,622.00
2023-05-10T07:34:15.695Z,619.00
2023-05-10T07:35:15.911Z,634.00
2023-05-10T07:36:16.248Z,653.00
2023-05-10T07:37:15.829Z,676.00
2023-05-10T07:38:15.915Z,693.00
2023-05-10T07:39:21.394Z,704.00
2023-05-10T07:40:16.971Z,707.00
2023-05-10T07:41:16.273Z,710.00
2023-05-10T07:42:15.917Z,709.00
2023-05-10T07:43:15.878Z,705.00
2023-05-10T07:44:15.906Z,707.00
2023-05-10T07:45:16.094Z,707.00
2023-05-10T07:46:15.903Z,705.00
2023-05-10T07:47:15.878Z,702.00
2023-05-10T07:48:15.907Z,699.00
2023-05-10T07:49:15.868Z,699.00
2023-05-10T07:50:15.839Z,700.00
2023-05-10T07:51:15.849Z,700.00
2023-05-10T07:52:16.135Z,698.00
2023-05-10T07:53:15.826Z,697.00
2023-05-10T07:54:15.824Z,699.00
2023-05-10T07:55:16.044Z,698.00
2023-05-10T07:56:15.864Z,695.00
2023-05-10T07:57:15.904Z,694.00
2023-05-10T07:58:15.955Z,692.00
2023-05-10T07:59:15.997Z,693.00
2023-05-10T08:00:16.008Z,692.00
2023-05-10T08:01:16.033Z,692.00
2023-05-10T08:02:16.137Z,683.00
2023-05-10T08:03:16.331Z,679.00
2023-05-10T08:04:16.225Z,679.00
2023-05-10T08:05:16.470Z,675.00
2023-05-10T08:06:16.216Z,669.00
2023-05-10T08:07:16.247Z,672.00
2023-05-10T08:08:16.227Z,676.00
2023-05-10T08:09:16.266Z,671.00
2023-05-10T08:10:16.277Z,671.00
2023-05-10T08:11:16.279Z,676.00
2023-05-10T08:12:16.345Z,679.00
2023-05-10T08:13:16.801Z,674.00
2023-05-10T08:14:16.406Z,561.00
2023-05-10T08:15:16.685Z,546.00
2023-05-10T08:16:16.564Z,530.00
2023-05-10T08:17:17.332Z,525.00
2023-05-10T08:18:16.811Z,513.00
2023-05-10T08:19:16.639Z,503.00
2023-05-10T08:20:16.681Z,494.00
2023-05-10T08:21:16.768Z,485.00
2023-05-10T08:22:16.695Z,480.00
2023-05-10T08:23:16.745Z,471.00
2023-05-10T08:24:16.717Z,475.00
2023-05-10T08:25:16.863Z,486.00
2023-05-10T08:26:16.777Z,473.00
2023-05-10T08:27:16.785Z,454.00
2023-05-10T08:28:16.842Z,441.00
2023-05-10T08:29:16.825Z,445.00
2023-05-10T08:30:16.880Z,441.00
2023-05-10T08:31:16.974Z,424.00
2023-05-10T08:32:16.921Z,414.00
2023-05-10T08:33:16.910Z,417.00
2023-05-10T08:34:16.960Z,414.00
2023-05-10T08:35:17.214Z,418.00
2023-05-10T08:36:17.026Z,427.00
2023-05-10T08:37:17.134Z,428.00
2023-05-10T08:38:17.153Z,426.00
2023-05-10T08:39:29.383Z,419.00
2023-05-10T08:40:18.173Z,409.00
2023-05-10T08:41:17.207Z,406.00
2023-05-10T08:42:17.132Z,408.00
2023-05-10T08:43:17.105Z,411.00
2023-05-10T08:44:17.117Z,432.00
2023-05-10T08:45:17.311Z,433.00
2023-05-10T08:46:17.151Z,437.00
2023-05-10T08:47:17.106Z,443.00
2023-05-10T08:48:17.109Z,444.00
2023-05-10T08:49:17.136Z,449.00
2023-05-10T08:50:17.086Z,452.00
2023-05-10T08:51:17.288Z,454.00
2023-05-10T08:52:17.057Z,455.00
2023-05-10T08:53:17.065Z,457.00
2023-05-10T08:54:17.055Z,463.00
2023-05-10T08:55:17.234Z,467.00
2023-05-10T08:56:17.065Z,470.00
2023-05-10T08:57:17.045Z,469.00
2023-05-10T08:58:17.301Z,473.00
2023-05-10T08:59:17.092Z,480.00
2023-05-10T09:00:17.133Z,482.00
2023-05-10T09:01:17.303Z,490.00
2023-05-10T09:02:18.804Z,494.00
2023-05-10T09:03:17.274Z,490.00
2023-05-10T09:04:17.357Z,487.00
2023-05-10T09:05:17.494Z,486.00
2023-05-10T09:06:17.379Z,488.00
2023-05-10T09:07:17.433Z,486.00
2023-05-10T09:08:17.559Z,481.00
2023-05-10T09:09:17.463Z,480.00
2023-05-10T09:10:17.505Z,477.00
2023-05-10T09:11:17.519Z,473.00
2023-05-10T09:12:17.544Z,478.00
2023-05-10T09:13:17.544Z,480.00
2023-05-10T09:14:17.588Z,481.00
2023-05-10T09:15:17.807Z,489.00
2023-05-10T09:16:21.566Z,486.00
2023-05-10T09:17:17.693Z,481.00
2023-05-10T09:18:17.685Z,490.00
2023-05-10T09:19:17.611Z,495.00
2023-05-10T09:20:17.634Z,494.00
2023-05-10T09:21:17.670Z,499.00
2023-05-10T09:22:17.576Z,492.00
2023-05-10T09:23:17.588Z,495.00
2023-05-10T09:24:17.564Z,495.00
2023-05-10T09:25:17.971Z,494.00
2023-05-10T09:26:17.545Z,518.00
2023-05-10T09:27:17.841Z,482.00
2023-05-10T09:28:17.555Z,477.00
2023-05-10T09:29:17.990Z,481.00
2023-05-10T09:30:17.562Z,482.00
2023-05-10T09:31:17.592Z,482.00
2023-05-10T09:32:17.565Z,531.00
2023-05-10T09:33:17.871Z,533.00
2023-05-10T09:34:17.506Z,540.00
2023-05-10T09:35:17.760Z,534.00
2023-05-10T09:36:17.510Z,530.00
2023-05-10T09:37:17.485Z,542.00
2023-05-10T09:38:17.515Z,554.00
2023-05-10T09:39:17.804Z,562.00
2023-05-10T09:40:18.280Z,566.00
2023-05-10T09:41:17.470Z,568.00
2023-05-10T09:42:17.470Z,568.00
2023-05-10T09:43:17.433Z,567.00
2023-05-10T09:44:17.432Z,568.00
2023-05-10T09:45:17.826Z,568.00
2023-05-10T09:46:17.487Z,568.00
2023-05-10T09:47:17.447Z,566.00
2023-05-10T09:48:17.404Z,564.00
2023-05-10T09:49:17.452Z,564.00
2023-05-10T09:50:17.679Z,568.00
2023-05-10T09:51:17.573Z,569.00
2023-05-10T09:52:17.660Z,566.00
2023-05-10T09:53:17.640Z,569.00
2023-05-10T09:54:17.762Z,573.00
2023-05-10T09:55:18.019Z,574.00
2023-05-10T09:56:17.825Z,573.00
2023-05-10T09:57:18.322Z,572.00
2023-05-10T09:58:17.931Z,575.00
2023-05-10T09:59:18.017Z,577.00
2023-05-10T10:00:18.056Z,574.00
2023-05-10T10:01:18.168Z,570.00
2023-05-10T10:02:18.166Z,568.00
2023-05-10T10:03:18.231Z,567.00
2023-05-10T10:04:18.302Z,573.00
2023-05-10T10:05:18.621Z,576.00
2023-05-10T10:06:29.051Z,579.00
2023-05-10T10:07:19.377Z,580.00
2023-05-10T10:08:18.457Z,581.00
2023-05-10T10:09:18.340Z,581.00
2023-05-10T10:10:18.366Z,579.00
2023-05-10T10:11:18.327Z,577.00
2023-05-10T10:12:18.341Z,577.00
2023-05-10T10:13:18.357Z,576.00
2023-05-10T10:14:19.964Z,575.00
2023-05-10T10:15:18.673Z,574.00
2023-05-10T10:16:18.397Z,579.00
2023-05-10T10:17:18.308Z,580.00
2023-05-10T10:18:18.381Z,583.00
2023-05-10T10:19:18.831Z,587.00
2023-05-10T10:20:18.586Z,587.00
2023-05-10T10:21:18.494Z,589.00
2023-05-10T10:22:18.852Z,588.00
2023-05-10T10:23:18.565Z,587.00
2023-05-10T10:24:18.598Z,591.00
2023-05-10T10:25:18.922Z,591.00
2023-05-10T10:26:18.857Z,592.00
2023-05-10T10:27:18.751Z,595.00
2023-05-10T10:28:18.758Z,601.00
2023-05-10T10:29:18.797Z,614.00
2023-05-10T10:30:18.888Z,647.00
2023-05-10T10:31:18.869Z,649.00
2023-05-10T10:32:18.895Z,646.00
2023-05-10T10:33:27.757Z,647.00
2023-05-10T10:34:19.870Z,651.00
2023-05-10T10:35:19.368Z,681.00
2023-05-10T10:36:18.864Z,678.00
2023-05-10T10:37:18.887Z,679.00
2023-05-10T10:38:18.854Z,686.00
2023-05-10T10:39:18.838Z,724.00
2023-05-10T10:40:18.836Z,754.00
2023-05-10T10:41:18.838Z,766.00
2023-05-10T10:42:18.801Z,766.00
2023-05-10T10:43:18.816Z,763.00
2023-05-10T10:44:18.897Z,749.00
2023-05-10T10:45:18.992Z,755.00
2023-05-10T10:46:19.095Z,769.00
2023-05-10T10:47:18.793Z,778.00
2023-05-10T10:48:18.782Z,784.00
2023-05-10T10:49:18.821Z,782.00
2023-05-10T10:50:18.775Z,780.00
2023-05-10T10:51:18.769Z,783.00
2023-05-10T10:52:18.766Z,786.00
2023-05-10T10:53:18.820Z,780.00
2023-05-10T10:54:18.774Z,785.00
2023-05-10T10:55:18.970Z,792.00
2023-05-10T10:56:18.730Z,807.00
2023-05-10T10:57:18.719Z,815.00
2023-05-10T10:58:18.712Z,828.00
2023-05-10T10:59:18.706Z,827.00
2023-05-10T11:00:18.699Z,833.00
2023-05-10T11:01:18.704Z,837.00
2023-05-10T11:02:18.672Z,837.00
2023-05-10T11:03:18.768Z,836.00
2023-05-10T11:04:18.729Z,828.00
2023-05-10T11:05:18.897Z,827.00
2023-05-10T11:06:18.646Z,802.00
2023-05-10T11:07:18.656Z,790.00
2023-05-10T11:08:18.875Z,804.00
2023-05-10T11:09:18.624Z,811.00
2023-05-10T11:10:18.649Z,813.00
2023-05-10T11:11:18.726Z,806.00
2023-05-10T11:12:18.800Z,787.00
2023-05-10T11:13:18.831Z,775.00
2023-05-10T11:14:18.912Z,771.00
2023-05-10T11:15:19.079Z,772.00
2023-05-10T11:16:19.070Z,765.00
2023-05-10T11:17:19.463Z,765.00
2023-05-10T11:18:19.117Z,766.00
2023-05-10T11:19:19.148Z,758.00
2023-05-10T11:20:19.436Z,748.00
2023-05-10T11:21:19.290Z,734.00
2023-05-10T11:22:19.285Z,723.00
2023-05-10T11:23:19.316Z,711.00
2023-05-10T11:24:19.350Z,700.00
2023-05-10T11:25:19.395Z,683.00
2023-05-10T11:26:19.411Z,670.00
2023-05-10T11:27:19.474Z,655.00
2023-05-10T11:28:19.455Z,638.00
2023-05-10T11:29:19.494Z,628.00
2023-05-10T11:30:19.691Z,610.00
2023-05-10T11:31:19.484Z,604.00
2023-05-10T11:32:19.459Z,599.00
2023-05-10T11:33:19.457Z,589.00
2023-05-10T11:34:19.449Z,579.00
2023-05-10T11:35:19.507Z,568.00
2023-05-10T11:36:19.472Z,559.00
2023-05-10T11:37:19.472Z,552.00
2023-05-10T11:38:19.463Z,547.00
2023-05-10T11:39:19.489Z,544.00
2023-05-10T11:40:19.570Z,540.00
2023-05-10T11:41:19.523Z,532.00
2023-05-10T11:42:19.485Z,527.00
2023-05-10T11:43:19.478Z,521.00
2023-05-10T11:44:19.468Z,512.00
2023-05-10T11:45:19.509Z,508.00
2023-05-10T11:46:19.501Z,500.00
2023-05-10T11:47:19.499Z,495.00
2023-05-10T11:48:19.622Z,489.00
2023-05-10T11:49:19.565Z,480.00
2023-05-10T11:50:19.687Z,476.00
2023-05-10T11:51:19.512Z,470.00
2023-05-10T11:52:19.550Z,465.00
2023-05-10T11:53:19.582Z,459.00
2023-05-10T11:54:19.564Z,455.00
2023-05-10T11:55:19.577Z,454.00
2023-05-10T11:56:19.543Z,453.00
2023-05-10T11:57:19.574Z,453.00
2023-05-10T11:58:19.550Z,450.00
2023-05-10T11:59:19.580Z,450.00
2023-05-10T12:00:19.923Z,447.00
2023-05-10T12:01:19.663Z,446.00
2023-05-10T12:02:19.673Z,443.00
2023-05-10T12:03:19.718Z,444.00
2023-05-10T12:04:19.932Z,445.00
2023-05-10T12:05:19.601Z,443.00
2023-05-10T12:06:19.577Z,444.00
2023-05-10T12:07:19.618Z,440.00
2023-05-10T12:08:19.584Z,438.00
2023-05-10T12:09:31.459Z,437.00
2023-05-10T12:10:21.149Z,437.00
2023-05-10T12:11:19.587Z,437.00
2023-05-10T12:12:19.608Z,437.00
2023-05-10T12:13:19.558Z,438.00
2023-05-10T12:14:19.530Z,437.00
2023-05-10T12:15:19.564Z,437.00
2023-05-10T12:16:19.643Z,437.00
2023-05-10T12:17:19.514Z,438.00
2023-05-10T12:18:19.537Z,436.00
2023-05-10T12:19:19.495Z,435.00
2023-05-10T12:20:19.734Z,436.00
2023-05-10T12:21:19.500Z,434.00
2023-05-10T12:22:19.531Z,436.00
2023-05-10T12:23:19.466Z,434.00
2023-05-10T12:24:19.492Z,434.00
2023-05-10T12:25:19.508Z,434.00
2023-05-10T12:26:19.522Z,434.00
2023-05-10T12:27:19.437Z,432.00
2023-05-10T12:28:19.451Z,429.00